Time;durP1;ratioP1;P1;durP2;ratioP2;P2;SDS_P1;SDS_P2;PMS_P1;PMS_P2;Temp;Humidity;BMP_temperature;BMP_pressure;BME280_temperature;BME280_humidity;BME280_pressure;Samples;Min_cycle;Max_cycle;Signal;HPM_P1;HPM_P2
2022/04/24 00:01:14;;;;;;;11.98;7.10;;;;;;;9.96;48.14;96558.56;10103854;29;20064;-78
2022/04/24 00:06:35;;;;;;;9.43;7.30;;;;;;;9.95;48.06;96556.41;10090601;29;20057;-79
2022/04/24 00:11:57;;;;;;;10.18;7.50;;;;;;;9.92;48.88;96538.09;10091713;29;20043;-79
2022/04/24 00:17:20;;;;;;;9.90;7.00;;;;;;;9.81;48.80;96525.72;10080133;29;20116;-79
2022/04/24 00:22:41;;;;;;;11.10;7.80;;;;;;;9.72;49.00;96507.88;10104135;29;20096;-79
2022/04/24 00:28:02;;;;;;;8.18;6.88;;;;;;;9.68;49.23;96515.31;10105648;29;20060;-79
2022/04/24 00:33:23;;;;;;;9.10;6.85;;;;;;;9.64;49.34;96515.81;10092533;29;20096;-79
2022/04/24 00:38:44;;;;;;;9.52;7.47;;;;;;;9.61;49.46;96508.69;10093931;29;20408;-78
2022/04/24 00:44:05;;;;;;;9.90;7.28;;;;;;;9.68;49.39;96501.38;10076999;29;20048;-79
2022/04/24 00:49:26;;;;;;;9.25;7.03;;;;;;;9.79;49.34;96494.25;10102305;29;20045;-79
2022/04/24 00:54:47;;;;;;;10.48;7.32;;;;;;;9.80;49.37;96485.25;10101277;29;20414;-79
2022/04/24 01:00:08;;;;;;;10.23;7.45;;;;;;;9.74;49.74;96477.31;10088526;29;20105;-78
2022/04/24 01:05:29;;;;;;;10.32;7.93;;;;;;;9.66;49.50;96471.34;10052857;29;20061;-79
2022/04/24 01:10:50;;;;;;;10.73;7.35;;;;;;;9.59;49.49;96454.94;10063514;29;20049;-79
2022/04/24 01:16:12;;;;;;;10.73;7.95;;;;;;;9.52;49.46;96445.56;10050660;29;20101;-79
2022/04/24 01:21:33;;;;;;;10.48;7.68;;;;;;;9.44;50.09;96440.28;10051440;29;20404;-79
2022/04/24 01:26:54;;;;;;;8.90;7.05;;;;;;;9.40;50.18;96439.38;10064180;29;20084;-79
2022/04/24 01:32:15;;;;;;;12.75;6.88;;;;;;;9.33;50.61;96426.47;10051338;29;20041;-79
2022/04/24 01:37:35;;;;;;;9.32;7.43;;;;;;;9.28;50.61;96419.25;10037274;29;20045;-79
2022/04/24 01:42:56;;;;;;;10.95;7.30;;;;;;;9.24;50.65;96416.97;10049404;29;20396;-79
2022/04/24 01:48:17;;;;;;;8.48;6.55;;;;;;;9.21;51.39;96418.22;10061121;29;20060;-79
2022/04/24 01:53:38;;;;;;;10.57;7.60;;;;;;;9.25;51.06;96415.63;10062046;29;20046;-79
2022/04/24 01:58:59;;;;;;;10.98;7.70;;;;;;;9.28;50.97;96411.63;10074499;29;20072;-79
2022/04/24 02:04:23;;;;;;;10.40;8.63;;;;;;;9.36;50.80;96400.16;10066782;29;20072;-79
2022/04/24 02:09:43;;;;;;;9.23;7.40;;;;;;;9.45;50.91;96397.16;10074534;29;20045;-79
2022/04/24 02:15:04;;;;;;;9.63;7.90;;;;;;;9.46;50.90;96387.50;10086684;29;20076;-79
2022/04/24 02:20:25;;;;;;;10.93;7.03;;;;;;;9.38;50.70;96394.72;10086347;29;20041;-79
2022/04/24 02:25:46;;;;;;;9.90;7.70;;;;;;;9.13;51.00;96379.53;10073486;29;20049;-79
2022/04/24 02:31:07;;;;;;;9.82;7.40;;;;;;;9.06;51.27;96379.84;10072277;29;20045;-79
2022/04/24 02:36:28;;;;;;;9.05;7.28;;;;;;;9.10;51.75;96388.44;10073397;29;20037;-79
2022/04/24 02:41:49;;;;;;;9.30;7.60;;;;;;;9.12;51.44;96388.53;10072634;29;20510;-79
2022/04/24 02:47:15;;;;;;;10.52;8.02;;;;;;;8.99;51.67;96375.34;10101227;29;20049;-79
2022/04/24 02:52:45;;;;;;;8.00;7.18;;;;;;;9.02;51.94;96379.66;10106226;29;20041;-82
2022/04/24 02:58:06;;;;;;;10.27;8.05;;;;;;;9.01;52.16;96373.38;10091302;29;20052;-81
2022/04/24 03:03:27;;;;;;;10.65;7.63;;;;;;;9.06;51.79;96368.72;10078469;29;20185;-81
2022/04/24 03:08:48;;;;;;;10.25;7.50;;;;;;;9.16;51.35;96360.88;10064946;29;20124;-81
2022/04/24 03:14:09;;;;;;;8.75;7.18;;;;;;;9.25;51.39;96364.78;10091623;29;20108;-81
2022/04/24 03:19:30;;;;;;;10.55;7.72;;;;;;;9.30;51.29;96358.81;10078702;29;20052;-81
2022/04/24 03:24:51;;;;;;;10.48;8.30;;;;;;;9.32;51.47;96358.91;10091042;29;20033;-79
2022/04/24 03:30:12;;;;;;;8.52;7.38;;;;;;;9.31;51.53;96351.91;10064506;29;20045;-79
2022/04/24 03:35:33;;;;;;;13.85;7.68;;;;;;;9.26;51.33;96343.97;10087803;29;20085;-79
2022/04/24 03:40:56;;;;;;;9.43;7.40;;;;;;;9.28;51.39;96339.22;10101410;29;20120;-80
2022/04/24 03:46:16;;;;;;;10.60;8.85;;;;;;;9.26;51.46;96341.19;10088813;29;20049;-80
2022/04/24 03:51:37;;;;;;;12.52;8.38;;;;;;;9.20;51.26;96330.47;10087262;29;20121;-80
2022/04/24 03:56:59;;;;;;;9.02;7.65;;;;;;;9.18;51.21;96316.47;10075262;29;20657;-80
2022/04/24 04:02:20;;;;;;;10.45;8.18;;;;;;;9.22;51.65;96327.06;10073401;29;20094;-79
2022/04/24 04:07:41;;;;;;;11.15;7.78;;;;;;;9.20;51.69;96324.19;10076025;29;20544;-80
2022/04/24 04:13:09;;;;;;;9.30;7.55;;;;;;;9.18;51.98;96331.09;10073866;29;20044;-79
2022/04/24 04:18:30;;;;;;;10.50;7.50;;;;;;;9.18;51.56;96322.75;10074687;29;20049;-80
2022/04/24 04:23:51;;;;;;;13.52;7.90;;;;;;;9.28;51.67;96330.88;10087709;29;20045;-79
2022/04/24 04:29:12;;;;;;;9.10;7.15;;;;;;;9.34;51.53;96339.53;10086907;29;20476;-80
2022/04/24 04:34:32;;;;;;;10.65;7.75;;;;;;;9.30;51.78;96342.13;10085934;29;20049;-79
2022/04/24 04:39:53;;;;;;;8.75;7.60;;;;;;;9.23;52.05;96342.44;10072342;29;20045;-80
2022/04/24 04:45:17;;;;;;;11.25;8.10;;;;;;;9.36;52.16;96322.19;10084975;29;20456;-79
2022/04/24 04:50:38;;;;;;;9.70;7.85;;;;;;;9.53;51.88;96313.28;10074835;29;20101;-80
2022/04/24 04:55:59;;;;;;;13.57;7.80;;;;;;;9.58;51.57;96325.34;10074250;29;20464;-79
2022/04/24 05:01:20;;;;;;;13.55;8.32;;;;;;;9.56;51.70;96311.34;10086451;29;20071;-80
2022/04/24 05:06:41;;;;;;;10.02;7.68;;;;;;;9.68;51.69;96295.19;10075080;29;20053;-80
2022/04/24 05:12:02;;;;;;;10.75;8.00;;;;;;;9.68;51.21;96289.63;10062366;29;20049;-80
2022/04/24 05:17:23;;;;;;;9.13;8.05;;;;;;;9.65;51.47;96285.28;10086850;29;20067;-80
2022/04/24 05:22:44;;;;;;;10.98;8.48;;;;;;;9.71;51.55;96293.94;10073902;29;20053;-80
2022/04/24 05:28:05;;;;;;;10.38;8.32;;;;;;;9.68;51.69;96301.50;10074608;29;20052;-79
2022/04/24 05:33:26;;;;;;;10.38;7.55;;;;;;;9.70;51.32;96281.34;10093563;29;20412;-80
2022/04/24 05:38:47;;;;;;;10.35;8.15;;;;;;;9.69;51.93;96279.91;10054600;29;20140;-79
2022/04/24 05:44:08;;;;;;;10.88;7.45;;;;;;;9.64;51.69;96276.22;10062719;29;20045;-80
2022/04/24 05:49:29;;;;;;;11.55;8.18;;;;;;;9.74;51.71;96259.25;10069269;29;20045;-79
2022/04/24 05:54:50;;;;;;;9.98;7.90;;;;;;;9.79;51.97;96246.25;10054931;29;20044;-80
2022/04/24 06:00:12;;;;;;;10.32;7.95;;;;;;;9.98;51.98;96232.50;10067798;29;20053;-80
2022/04/24 06:05:34;;;;;;;11.90;8.27;;;;;;;10.27;51.20;96231.03;10063356;29;20061;-80
2022/04/24 06:10:55;;;;;;;10.10;8.63;;;;;;;10.49;51.45;96214.53;10064737;29;20045;-80
2022/04/24 06:16:16;;;;;;;13.63;8.32;;;;;;;10.59;51.49;96215.69;10047445;29;20441;-80
2022/04/24 06:21:37;;;;;;;11.38;9.02;;;;;;;10.62;51.57;96218.59;10045399;29;20042;-80
2022/04/24 06:27:04;;;;;;;11.10;8.98;;;;;;;10.62;51.48;96230.47;10081355;29;20049;-78
2022/04/24 06:32:30;;;;;;;11.02;8.88;;;;;;;10.48;52.03;96236.13;10062399;29;20045;-80
2022/04/24 06:37:55;;;;;;;12.48;9.45;;;;;;;10.49;52.60;96248.72;10072369;29;20049;-80
2022/04/24 06:43:16;;;;;;;13.30;10.40;;;;;;;10.47;52.81;96253.50;10075923;29;20089;-83
2022/04/24 06:48:37;;;;;;;16.08;11.95;;;;;;;10.55;53.00;96239.91;10112716;29;20421;-83
2022/04/24 06:53:58;;;;;;;14.05;10.85;;;;;;;10.53;53.51;96242.63;10114810;29;20096;-85
2022/04/24 06:59:19;;;;;;;14.10;10.18;;;;;;;10.71;53.42;96249.00;10115113;29;20049;-85
2022/04/24 07:04:39;;;;;;;14.90;10.63;;;;;;;10.76;53.56;96235.94;10113580;29;20041;-83
2022/04/24 07:10:01;;;;;;;13.10;10.02;;;;;;;10.81;53.92;96234.75;10127430;29;20033;-83
2022/04/24 07:15:23;;;;;;;14.98;10.63;;;;;;;10.77;54.19;96243.66;10127007;29;20080;-83
2022/04/24 07:20:44;;;;;;;14.23;10.88;;;;;;;10.77;54.73;96254.81;10125738;29;20096;-83
2022/04/24 07:26:05;;;;;;;15.27;10.70;;;;;;;10.83;55.34;96252.31;10101606;29;20052;-84
2022/04/24 07:31:28;;;;;;;14.35;10.63;;;;;;;11.00;55.50;96252.97;10125809;29;20045;-85
2022/04/24 07:36:49;;;;;;;14.65;10.73;;;;;;;10.95;55.42;96273.69;10125996;29;20084;-83
2022/04/24 07:42:10;;;;;;;14.35;11.13;;;;;;;10.87;56.09;96269.22;10113151;29;20033;-85
2022/04/24 07:47:30;;;;;;;14.50;11.43;;;;;;;10.84;56.79;96258.59;10112365;29;20052;-80
2022/04/24 07:52:51;;;;;;;14.65;11.40;;;;;;;10.92;57.03;96250.56;10096507;29;20109;-81
2022/04/24 07:58:13;;;;;;;13.50;11.07;;;;;;;11.03;58.28;96243.34;10111369;29;20044;-81
2022/04/24 08:03:34;;;;;;;16.73;11.77;;;;;;;11.12;58.47;96243.03;10111653;29;20043;-84
2022/04/24 08:08:55;;;;;;;14.95;12.15;;;;;;;11.32;58.55;96231.25;10112444;29;20118;-85
2022/04/24 08:14:19;;;;;;;14.00;11.85;;;;;;;11.54;59.33;96231.41;10112174;29;20097;-85
2022/04/24 08:19:43;;;;;;;16.05;12.40;;;;;;;11.35;60.91;96218.78;10125587;29;20049;-86
2022/04/24 08:25:06;;;;;;;21.27;13.18;;;;;;;11.38;61.78;96218.22;10109129;29;20045;-84
2022/04/24 08:30:27;;;;;;;15.82;12.57;;;;;;;11.38;61.63;96211.94;10095060;29;20040;-82
2022/04/24 08:35:48;;;;;;;18.35;12.98;;;;;;;11.47;61.74;96210.91;10109646;29;20103;-82
2022/04/24 08:41:10;;;;;;;15.25;12.10;;;;;;;11.40;62.20;96209.94;10122124;29;20052;-82
2022/04/24 08:46:31;;;;;;;14.55;12.35;;;;;;;11.44;62.50;96214.97;10092420;29;20120;-83
2022/04/24 08:51:52;;;;;;;17.80;11.95;;;;;;;11.41;62.36;96193.91;10059956;29;20053;-83
2022/04/24 08:57:13;;;;;;;15.32;11.85;;;;;;;11.44;62.85;96176.56;10084555;29;20033;-83
2022/04/24 09:02:34;;;;;;;16.02;12.10;;;;;;;11.44;63.59;96173.06;10083605;29;20065;-84
2022/04/24 09:08:09;;;;;;;18.33;12.90;;;;;;;11.45;64.56;96152.16;10071145;29;20056;-84
2022/04/24 09:19:33;;;;;;;14.38;11.63;;;;;;;11.30;64.28;96161.34;10099700;29;19927;-83
2022/04/24 09:24:59;;;;;;;15.82;11.82;;;;;;;11.23;64.61;96179.22;10077390;29;20046;-82
2022/04/24 09:30:22;;;;;;;16.50;12.07;;;;;;;11.17;65.74;96172.03;10083370;29;20049;-87
2022/04/24 09:35:48;;;;;;;14.75;12.27;;;;;;;11.12;66.01;96181.59;10058933;29;20049;-79
2022/04/24 09:41:35;;;;;;;15.07;11.68;;;;;;;11.06;66.35;96191.81;10081983;29;20078;-80
2022/04/24 09:46:59;;;;;;;17.45;12.65;;;;;;;10.97;67.24;96190.75;10080666;29;20056;-84
2022/04/24 09:52:24;;;;;;;17.53;11.97;;;;;;;10.91;68.09;96189.78;10070322;29;20064;-86
2022/04/24 09:57:46;;;;;;;16.92;12.55;;;;;;;10.87;68.74;96190.34;10070814;29;20045;-80
2022/04/24 10:03:12;;;;;;;15.75;11.77;;;;;;;10.84;68.23;96188.81;10070408;29;20050;-84
2022/04/24 10:08:36;;;;;;;15.95;10.75;;;;;;;10.75;68.66;96187.75;10069836;29;20078;-82
2022/04/24 10:13:59;;;;;;;15.15;10.80;;;;;;;10.81;68.41;96192.88;10082074;29;20069;-84
2022/04/24 10:19:48;;;;;;;17.15;11.40;;;;;;;10.83;68.73;96187.38;10081882;29;20043;-84
2022/04/24 10:25:09;;;;;;;14.32;10.13;;;;;;;10.84;68.81;96181.16;10071447;29;20041;-82
2022/04/24 10:30:33;;;;;;;14.05;10.45;;;;;;;10.94;68.61;96177.34;10080858;29;20112;-82
2022/04/24 10:36:02;;;;;;;14.38;10.70;;;;;;;10.98;69.14;96175.44;10069861;29;20078;-83
2022/04/24 10:41:24;;;;;;;13.15;10.73;;;;;;;11.02;68.96;96166.53;10052528;29;20060;-79
2022/04/24 10:46:47;;;;;;;15.45;10.57;;;;;;;11.10;69.53;96175.22;10062970;29;20056;-80
2022/04/24 10:52:08;;;;;;;13.52;10.20;;;;;;;11.08;69.11;96170.25;10061339;29;20036;-84
2022/04/24 10:57:29;;;;;;;13.48;9.57;;;;;;;11.09;69.27;96165.38;10068830;29;20041;-82
2022/04/24 11:02:50;;;;;;;11.60;9.23;;;;;;;11.06;69.87;96170.19;10081739;29;20069;-83
2022/04/24 11:08:20;;;;;;;16.95;10.18;;;;;;;11.15;69.67;96169.16;10070132;29;20073;-84
2022/04/24 11:13:44;;;;;;;11.68;8.60;;;;;;;11.29;69.78;96171.06;10064640;29;20092;-84
2022/04/24 11:19:06;;;;;;;12.93;8.90;;;;;;;11.34;69.13;96158.69;10086697;29;20033;-82
2022/04/24 11:24:29;;;;;;;11.93;9.40;;;;;;;11.34;69.04;96167.81;10087205;29;20036;-82
2022/04/24 11:29:50;;;;;;;12.27;9.63;;;;;;;11.23;69.15;96160.38;10084222;29;20079;-86
2022/04/24 11:35:11;;;;;;;11.63;8.60;;;;;;;11.19;69.35;96176.97;10072876;29;20097;-87
2022/04/24 11:40:33;;;;;;;11.68;8.90;;;;;;;11.16;69.73;96175.44;10097639;29;20057;-86
2022/04/24 11:51:50;;;;;;;13.70;9.43;;;;;;;10.98;70.21;96172.63;10086704;29;20057;-88
2022/04/24 11:57:13;;;;;;;12.55;9.63;;;;;;;10.97;70.74;96171.19;10072173;29;20046;-88
2022/04/24 12:02:38;;;;;;;11.25;9.98;;;;;;;10.93;70.93;96175.91;10072557;29;20061;-83
2022/04/24 12:08:01;;;;;;;11.15;9.48;;;;;;;10.88;70.80;96186.91;10080330;29;20049;-81
2022/04/24 12:13:22;;;;;;;17.30;11.50;;;;;;;10.86;71.00;96200.06;10088858;29;20407;-80
2022/04/24 12:18:43;;;;;;;17.48;11.90;;;;;;;10.82;70.98;96222.25;10071305;29;20053;-80
2022/04/24 12:24:06;;;;;;;9.70;7.65;;;;;;;10.66;71.32;96213.16;10048014;29;20067;-80
2022/04/24 12:29:28;;;;;;;9.00;7.10;;;;;;;10.52;71.18;96188.19;10083099;29;20053;-80
2022/04/24 12:34:49;;;;;;;7.45;6.22;;;;;;;10.46;72.11;96204.66;10089396;29;20452;-81
2022/04/24 12:40:13;;;;;;;8.90;6.47;;;;;;;10.56;72.27;96213.47;10073429;29;20051;-80
2022/04/24 12:45:34;;;;;;;8.35;5.88;;;;;;;10.93;72.24;96215.72;10070467;29;20063;-80
2022/04/24 12:50:55;;;;;;;7.18;5.47;;;;;;;11.36;71.64;96209.78;10085593;29;20042;-80
2022/04/24 12:56:15;;;;;;;7.28;5.60;;;;;;;11.80;71.02;96215.72;10049867;29;20093;-81
2022/04/24 13:01:37;;;;;;;8.38;6.30;;;;;;;12.43;69.91;96228.50;10067842;29;20069;-81
2022/04/24 13:07:04;;;;;;;8.13;6.63;;;;;;;13.14;69.38;96211.38;10065372;29;20049;-81
2022/04/24 13:12:27;;;;;;;8.13;6.72;;;;;;;13.97;67.95;96208.38;10059658;29;20078;-80
2022/04/24 13:18:07;;;;;;;9.02;7.30;;;;;;;14.51;66.53;96211.34;10044912;29;20071;-80
2022/04/24 13:23:27;;;;;;;8.68;7.20;;;;;;;14.33;65.63;96205.91;10076701;29;20056;-80
2022/04/24 13:28:48;;;;;;;7.97;7.18;;;;;;;14.22;66.39;96203.47;10063844;29;20544;-80
2022/04/24 13:34:09;;;;;;;8.52;7.32;;;;;;;14.51;65.77;96216.97;10062918;29;20349;-80
2022/04/24 13:39:30;;;;;;;7.80;7.00;;;;;;;14.95;65.42;96210.41;10088851;29;20112;-80
2022/04/24 13:44:51;;;;;;;8.63;7.22;;;;;;;15.14;63.66;96181.38;10082691;29;20049;-81
2022/04/24 13:50:13;;;;;;;9.23;7.78;;;;;;;15.09;63.98;96186.19;10082446;29;20041;-80
2022/04/24 13:55:34;;;;;;;8.45;7.53;;;;;;;14.76;63.18;96167.78;10102423;29;20045;-80
2022/04/24 14:00:55;;;;;;;8.00;7.20;;;;;;;14.37;63.63;96163.19;10084909;29;20399;-80
2022/04/24 14:06:16;;;;;;;7.65;6.57;;;;;;;14.15;63.62;96182.22;10039235;29;20054;-81
2022/04/24 14:11:37;;;;;;;7.30;6.10;;;;;;;14.11;63.88;96187.72;10048936;29;20041;-81
2022/04/24 14:16:59;;;;;;;6.28;5.68;;;;;;;14.50;63.75;96209.94;10042695;29;20082;-80
2022/04/24 14:22:19;;;;;;;6.13;5.53;;;;;;;14.80;63.09;96228.97;10064095;29;20045;-81
2022/04/24 14:27:40;;;;;;;7.95;6.13;;;;;;;14.76;62.71;96260.47;10059676;29;20069;-80
2022/04/24 14:33:01;;;;;;;6.97;5.82;;;;;;;14.09;62.49;96263.41;10069790;29;20046;-80
2022/04/24 14:38:22;;;;;;;8.30;5.68;;;;;;;13.45;63.32;96267.06;10066801;29;20078;-81
2022/04/24 14:43:43;;;;;;;6.80;6.10;;;;;;;13.22;63.60;96278.91;10039748;29;20046;-81
2022/04/24 15:00:26;;;;;;;7.28;6.47;;;;;;;13.40;64.35;96281.56;10034959;29;20045;-81
2022/04/24 15:05:47;;;;;;;6.55;5.88;;;;;;;14.38;62.79;96287.41;10046117;29;20062;-81
2022/04/24 15:11:07;;;;;;;7.32;6.07;;;;;;;14.31;61.30;96276.03;10032204;29;20046;-81
2022/04/24 15:16:29;;;;;;;6.85;6.15;;;;;;;14.22;61.59;96276.44;10047603;29;20040;-81
2022/04/24 15:21:50;;;;;;;7.95;6.75;;;;;;;14.02;61.72;96274.47;10046799;29;20041;-81
2022/04/24 15:27:11;;;;;;;7.00;6.18;;;;;;;13.70;61.15;96270.63;10033396;29;20056;-81
2022/04/24 15:32:31;;;;;;;8.82;6.97;;;;;;;13.64;61.50;96273.97;10032356;29;20065;-81
2022/04/24 15:37:52;;;;;;;7.55;6.75;;;;;;;13.70;61.53;96284.66;10042749;29;20050;-81
2022/04/24 15:43:15;;;;;;;8.05;7.25;;;;;;;13.71;61.31;96311.34;10030133;29;20050;-80
2022/04/24 15:48:35;;;;;;;9.40;7.85;;;;;;;13.59;61.39;96310.94;10040950;29;20046;-80
2022/04/24 15:53:58;;;;;;;8.73;7.65;;;;;;;13.46;61.56;96307.72;10015237;29;20042;-80
2022/04/24 15:59:19;;;;;;;9.80;8.27;;;;;;;13.41;61.26;96305.44;10015317;29;20057;-80
2022/04/24 16:04:40;;;;;;;10.18;8.30;;;;;;;13.35;61.20;96310.84;10037288;29;20050;-80
2022/04/24 16:10:03;;;;;;;10.68;9.23;;;;;;;13.05;61.23;96311.22;10027850;29;20056;-80
2022/04/24 16:15:24;;;;;;;9.88;8.38;;;;;;;12.75;61.40;96322.06;10040111;29;20045;-80
2022/04/24 16:20:44;;;;;;;11.68;9.32;;;;;;;12.58;61.65;96303.22;10039910;29;20042;-80
2022/04/24 16:26:05;;;;;;;11.48;9.38;;;;;;;12.37;61.71;96293.38;10052833;29;20473;-80
2022/04/24 16:31:29;;;;;;;10.70;9.38;;;;;;;12.29;62.10;96295.84;10038835;29;20157;-81
2022/04/24 16:36:50;;;;;;;11.02;9.02;;;;;;;12.42;61.95;96292.13;10052515;29;20072;-80
2022/04/24 16:42:14;;;;;;;9.45;8.43;;;;;;;12.41;61.60;96290.72;10050755;29;20053;-80
2022/04/24 16:47:36;;;;;;;9.25;8.15;;;;;;;12.09;61.92;96293.00;10052342;29;20061;-79
2022/04/24 16:58:50;;;;;;;9.45;8.38;;;;;;;11.91;62.84;96329.38;10068462;29;20056;-82
2022/04/24 17:04:11;;;;;;;9.73;7.82;;;;;;;11.95;62.31;96326.00;10080716;29;20062;-83
2022/04/24 17:09:33;;;;;;;11.48;8.15;;;;;;;11.85;62.56;96322.81;10070908;29;20049;-84
2022/04/24 17:14:56;;;;;;;8.43;7.32;;;;;;;11.67;62.56;96323.47;10073695;29;20049;-82
2022/04/24 17:20:18;;;;;;;10.55;7.35;;;;;;;11.50;62.88;96338.16;10050682;29;20060;-81
2022/04/24 17:25:39;;;;;;;9.32;7.82;;;;;;;11.38;62.93;96340.44;10056687;29;20089;-82
2022/04/24 17:31:00;;;;;;;8.57;7.35;;;;;;;11.28;63.04;96351.19;10044127;29;20049;-80
2022/04/24 17:36:22;;;;;;;8.35;7.10;;;;;;;11.22;62.94;96348.16;10057391;29;20125;-82
2022/04/24 17:41:46;;;;;;;9.05;7.28;;;;;;;11.16;63.25;96346.53;10074800;29;20042;-83
2022/04/24 17:47:08;;;;;;;8.10;6.60;;;;;;;11.08;63.51;96343.38;10064716;29;20049;-82
2022/04/24 17:52:29;;;;;;;8.07;6.53;;;;;;;10.92;63.22;96337.13;10076976;29;20042;-82
2022/04/24 17:57:51;;;;;;;8.68;6.57;;;;;;;10.73;63.53;96338.38;10066887;29;20590;-84
2022/04/24 18:03:12;;;;;;;8.90;6.70;;;;;;;10.50;64.12;96321.97;10078000;29;20124;-84
2022/04/24 18:08:34;;;;;;;9.35;7.45;;;;;;;10.26;64.04;96341.84;10065986;29;20074;-82
2022/04/24 18:13:55;;;;;;;9.32;7.32;;;;;;;10.15;64.68;96345.50;10090771;29;20053;-84
2022/04/24 18:19:16;;;;;;;9.20;7.72;;;;;;;10.11;64.93;96355.72;10079130;29;20041;-84
2022/04/24 18:24:39;;;;;;;10.48;7.68;;;;;;;10.05;65.09;96364.53;10064514;29;20053;-83
2022/04/24 18:30:03;;;;;;;9.27;7.65;;;;;;;10.08;64.89;96357.72;10076833;29;20049;-78
2022/04/24 18:35:24;;;;;;;9.05;7.85;;;;;;;10.10;65.23;96366.16;10099581;29;20052;-82
2022/04/24 18:40:46;;;;;;;19.95;8.13;;;;;;;9.97;65.10;96361.38;10055668;29;20049;-82
2022/04/24 18:46:07;;;;;;;10.38;8.40;;;;;;;9.79;65.82;96361.22;10088469;29;20034;-82
2022/04/24 18:51:29;;;;;;;10.85;8.52;;;;;;;9.60;66.23;96367.97;10085369;29;20025;-83
2022/04/24 18:56:51;;;;;;;10.52;9.35;;;;;;;9.49;66.54;96365.31;10070324;29;20053;-81
2022/04/24 19:02:29;;;;;;;12.05;9.73;;;;;;;9.36;66.42;96370.28;10080098;29;20062;-81
2022/04/24 19:07:51;;;;;;;12.60;9.65;;;;;;;9.28;66.49;96380.28;10095333;29;20050;-82
2022/04/24 19:13:14;;;;;;;12.98;10.55;;;;;;;9.14;67.25;96386.56;10093632;29;20049;-81
2022/04/24 19:18:36;;;;;;;13.00;10.23;;;;;;;9.02;67.31;96380.38;10095105;29;20029;-82
2022/04/24 19:24:00;;;;;;;13.10;11.20;;;;;;;8.96;67.54;96396.03;10089100;29;20061;-84
2022/04/24 19:29:21;;;;;;;14.15;11.35;;;;;;;9.06;67.81;96402.84;10084174;29;20527;-80
2022/04/24 19:34:45;;;;;;;13.57;11.48;;;;;;;9.10;68.08;96407.91;10100285;29;20077;-81
2022/04/24 19:40:08;;;;;;;16.15;12.07;;;;;;;9.23;68.06;96412.75;10100183;29;20033;-81
2022/04/24 19:45:29;;;;;;;31.08;24.88;;;;;;;9.37;67.99;96410.72;10075223;29;20052;-79
2022/04/24 19:50:50;;;;;;;15.30;12.02;;;;;;;9.53;68.16;96418.41;10050254;29;20053;-80
2022/04/24 19:56:14;;;;;;;18.40;12.25;;;;;;;9.59;68.40;96415.94;10060844;29;20049;-80
2022/04/24 20:01:35;;;;;;;17.67;12.75;;;;;;;9.59;67.92;96422.22;10060082;29;20102;-80
2022/04/24 20:06:56;;;;;;;16.17;12.77;;;;;;;9.58;68.51;96422.84;10047418;29;20048;-80
2022/04/24 20:12:18;;;;;;;15.60;13.00;;;;;;;9.59;68.25;96427.81;10075320;29;20052;-80
2022/04/24 20:17:40;;;;;;;14.32;12.38;;;;;;;9.62;68.63;96425.84;10040556;29;20052;-80
2022/04/24 20:23:01;;;;;;;16.23;13.52;;;;;;;9.62;68.55;96423.06;10061957;29;20049;-80
2022/04/24 20:28:22;;;;;;;16.40;13.18;;;;;;;9.56;68.67;96417.91;10061140;29;20073;-80
2022/04/24 20:33:46;;;;;;;18.27;14.27;;;;;;;9.49;69.05;96423.78;10056999;29;20053;-80
2022/04/24 20:39:10;;;;;;;15.80;13.00;;;;;;;9.48;69.09;96433.50;10058170;29;20049;-79
2022/04/24 20:44:31;;;;;;;18.10;14.57;;;;;;;9.40;69.39;96431.75;10043083;29;20445;-79
2022/04/24 20:49:54;;;;;;;17.45;13.60;;;;;;;9.33;69.10;96429.97;10056118;29;20045;-80
2022/04/24 20:55:14;;;;;;;19.15;13.57;;;;;;;9.29;69.43;96434.63;10055091;29;20117;-80
2022/04/24 21:00:35;;;;;;;19.05;14.68;;;;;;;9.26;69.61;96444.91;10033395;29;20045;-80
2022/04/24 21:05:56;;;;;;;19.48;15.65;;;;;;;9.14;69.95;96442.22;9999958;29;20064;-80
2022/04/24 21:11:24;;;;;;;16.73;14.13;;;;;;;9.06;70.09;96438.31;10013801;29;20046;-80
2022/04/24 21:16:45;;;;;;;19.65;16.63;;;;;;;9.14;69.92;96453.38;10012088;29;20061;-80
2022/04/24 21:22:05;;;;;;;19.58;16.25;;;;;;;9.22;70.14;96452.34;10024320;29;20046;-80
2022/04/24 21:27:26;;;;;;;17.77;14.13;;;;;;;9.27;70.27;96454.75;10012264;29;20053;-80
2022/04/24 21:32:47;;;;;;;20.27;15.10;;;;;;;9.32;70.30;96450.81;10024705;29;20045;-80
2022/04/24 21:38:08;;;;;;;18.73;15.27;;;;;;;9.36;69.94;96450.28;10026506;29;20489;-80
2022/04/24 21:43:28;;;;;;;18.02;14.85;;;;;;;9.38;70.26;96467.13;10026525;29;20046;-79
2022/04/24 21:48:49;;;;;;;20.13;15.73;;;;;;;9.39;70.19;96471.34;10013908;29;20378;-80
2022/04/24 21:54:10;;;;;;;20.13;16.27;;;;;;;9.44;70.16;96478.56;10025470;29;20050;-80
2022/04/24 21:59:30;;;;;;;18.95;15.43;;;;;;;9.47;70.24;96482.91;10026192;29;20042;-80
2022/04/24 22:05:14;;;;;;;20.52;16.42;;;;;;;9.38;70.17;96472.69;10050381;29;20065;-80
2022/04/24 22:10:35;;;;;;;19.90;15.65;;;;;;;9.27;70.58;96481.88;10037369;29;20053;-80
2022/04/24 22:15:56;;;;;;;18.13;15.52;;;;;;;9.24;70.37;96481.00;10024312;29;20045;-81
2022/04/24 22:27:01;;;;;;;17.08;14.93;;;;;;;9.10;70.55;96463.59;10065953;29;20045;-80
2022/04/24 22:32:21;;;;;;;16.02;14.20;;;;;;;9.16;70.76;96486.16;10058341;29;20120;-80
2022/04/24 22:37:45;;;;;;;16.42;13.57;;;;;;;9.22;70.92;96497.63;10051430;29;20053;-79
2022/04/24 22:43:06;;;;;;;15.77;13.32;;;;;;;9.28;70.86;96491.66;10067039;29;20045;-80
2022/04/24 22:48:27;;;;;;;16.73;12.98;;;;;;;9.33;70.57;96502.38;10061704;29;20086;-80
2022/04/24 22:53:51;;;;;;;14.02;12.50;;;;;;;9.39;70.45;96499.91;10038963;29;20041;-80
2022/04/24 22:59:11;;;;;;;17.55;13.38;;;;;;;9.45;70.49;96491.13;10033345;29;20042;-81
2022/04/24 23:04:32;;;;;;;14.65;12.00;;;;;;;9.44;70.14;96498.78;10048629;29;130985;-80
2022/04/24 23:09:54;;;;;;;17.65;12.35;;;;;;;9.40;70.26;96490.22;10050198;29;20049;-80
2022/04/24 23:15:14;;;;;;;15.85;12.75;;;;;;;9.40;70.49;96490.22;10064500;29;20553;-79
2022/04/24 23:20:35;;;;;;;15.88;12.15;;;;;;;9.39;70.44;96488.06;10063439;29;20042;-80
2022/04/24 23:25:56;;;;;;;17.38;13.10;;;;;;;9.39;70.34;96490.84;10041041;29;20045;-80
2022/04/24 23:31:16;;;;;;;17.77;14.25;;;;;;;9.35;70.53;96496.91;10043796;29;20054;-80
2022/04/24 23:36:39;;;;;;;17.73;14.02;;;;;;;9.40;70.30;96497.84;10043463;29;20484;-80
2022/04/24 23:42:00;;;;;;;16.30;14.02;;;;;;;9.41;70.61;96500.03;10056158;29;20060;-80
2022/04/24 23:47:21;;;;;;;19.15;14.50;;;;;;;9.42;70.53;96501.47;10030141;29;20523;-80
2022/04/24 23:52:41;;;;;;;16.83;13.75;;;;;;;9.44;70.51;96496.00;10043184;29;20370;-80
2022/04/24 23:58:02;;;;;;;18.08;14.15;;;;;;;9.46;70.80;96500.97;10029860;29;20062;-80
